Aérodrome :
LOGIN :

S'inscrire | Disclaimer

   EN    FR    IT 

 










Légende :    VFR   VFR Marginal   IFR   IFR Intensif   IFR Très Intensif
Visi : 
Plafond : 
>= 8 km
>= 3000ft
5 à 8 km
1000 à 3000 ft
1500m à 5 km
500 à 1000 ft
800 à 1500m
200 à 500 ft
< 800m
< 200 ft
Symboles :   Orages  Brouillard  Fortes neiges  Fortes précipitations  Vent > 20 kt
SIGMETs :   Divers  Orages  Givrage  Turbulence  Onde Orograph.  Cendres Volcan.







- Altitude de l'aérodrome : 776 ft
- Code IATA : RMS


ETAR - Ramstein Air Base

DERNIER METAR :
  • 180558Z 23003KT 9999 SCT043 BKN130 20/16 A2999 RMK AO2A SLP149 T01950164 10195 20151 56003 $

METARs EXPIRÉS :
  • 180458Z 26004KT 9999 SCT050 BKN100 BKN190 17/17 A2999 RMK AO2A SLP150 T01730166 $
  • 180358Z 00000KT 9999 BKN050 BKN100 BKN210 16/16 A3000 RMK AO2A SLP154 T01580158 $

TAF TAF ETAR
Valide du 18 à 02h jusqu'au 19 à 08h UTC


180201Z 1802/1908 21006KT 9999 BKN030 QNH3001INS
BECMG 1805/1806 21009KT 9000 -SHRA BKN030 OVC050 QNH3002INS
BECMG 1810/1811 22012KT 9000 -SHRA SCT010 BKN020 QNH2996INS
TEMPO 1811/1816 24010G25KT VCTS BKN010
BECMG 1818/1819 24009KT 9000 -SHRA BKN010 OVC020 QNH3002INS
BECMG 1905/1906 26009KT 9999 NSW SCT020 QNH3012INS TX23/1812Z TN13/1802Z
Pas de NOTAMs connus pour ce terrain.



MET'MAP, la Météo Aéronautique d'un coup d'oeil ! - Copyright ORBIFLY Décembre 2007 - Disclaimer

ORBIFLY MET'MAP TEAM :

Programmation & Développement : Alexandra Zaïnal
Conception & Développement : Baudouin d'Aumeries
Co-Programmation & Développement : Marc-Olivier Méhu
Soutien technique & logistique : Manuel Goepfert

Contact : metmap@orbifly.com




SOURCES & CREDITS :

   NOAA